sensor_id;sensor_type;location;lat;lon;timestamp;P1;durP1;ratioP1;P2;durP2;ratioP2
21634;SDS011;10979;48.306;9.830;2023-03-08T00:00:36;0.40;;;0.40;;
21634;SDS011;10979;48.306;9.830;2023-03-08T00:03:03;0.40;;;0.40;;
21634;SDS011;10979;48.306;9.830;2023-03-08T00:05:29;0.40;;;0.40;;
21634;SDS011;10979;48.306;9.830;2023-03-08T00:07:54;0.40;;;0.40;;
21634;SDS011;10979;48.306;9.830;2023-03-08T00:10:20;0.40;;;0.40;;
21634;SDS011;10979;48.306;9.830;2023-03-08T00:12:47;0.40;;;0.40;;
21634;SDS011;10979;48.306;9.830;2023-03-08T00:15:12;0.40;;;0.40;;
21634;SDS011;10979;48.306;9.830;2023-03-08T00:17:38;0.40;;;0.40;;
21634;SDS011;10979;48.306;9.830;2023-03-08T00:20:04;0.40;;;0.40;;
21634;SDS011;10979;48.306;9.830;2023-03-08T00:22:38;0.40;;;0.40;;
21634;SDS011;10979;48.306;9.830;2023-03-08T00:28:31;0.40;;;0.40;;
21634;SDS011;10979;48.306;9.830;2023-03-08T00:31:04;0.40;;;0.40;;
21634;SDS011;10979;48.306;9.830;2023-03-08T00:33:35;0.40;;;0.40;;
21634;SDS011;10979;48.306;9.830;2023-03-08T00:36:04;0.40;;;0.40;;
21634;SDS011;10979;48.306;9.830;2023-03-08T00:38:41;0.40;;;0.40;;
21634;SDS011;10979;48.306;9.830;2023-03-08T00:41:07;0.40;;;0.40;;
21634;SDS011;10979;48.306;9.830;2023-03-08T00:43:33;0.40;;;0.40;;
21634;SDS011;10979;48.306;9.830;2023-03-08T00:45:59;0.30;;;0.30;;
21634;SDS011;10979;48.306;9.830;2023-03-08T00:48:25;0.40;;;0.40;;
21634;SDS011;10979;48.306;9.830;2023-03-08T00:50:51;0.40;;;0.40;;
21634;SDS011;10979;48.306;9.830;2023-03-08T00:53:16;0.40;;;0.40;;
21634;SDS011;10979;48.306;9.830;2023-03-08T00:55:52;0.40;;;0.40;;
21634;SDS011;10979;48.306;9.830;2023-03-08T00:58:20;0.40;;;0.40;;
21634;SDS011;10979;48.306;9.830;2023-03-08T01:00:46;0.40;;;0.40;;
21634;SDS011;10979;48.306;9.830;2023-03-08T01:03:12;0.40;;;0.40;;
21634;SDS011;10979;48.306;9.830;2023-03-08T01:05:41;0.40;;;0.40;;
21634;SDS011;10979;48.306;9.830;2023-03-08T01:08:09;0.40;;;0.40;;
21634;SDS011;10979;48.306;9.830;2023-03-08T01:10:36;0.40;;;0.40;;
21634;SDS011;10979;48.306;9.830;2023-03-08T01:13:03;0.40;;;0.40;;
21634;SDS011;10979;48.306;9.830;2023-03-08T01:15:30;0.40;;;0.40;;
21634;SDS011;10979;48.306;9.830;2023-03-08T01:17:58;0.40;;;0.40;;
21634;SDS011;10979;48.306;9.830;2023-03-08T01:20:24;0.40;;;0.40;;
21634;SDS011;10979;48.306;9.830;2023-03-08T01:22:49;0.40;;;0.40;;
21634;SDS011;10979;48.306;9.830;2023-03-08T01:25:15;0.40;;;0.40;;
21634;SDS011;10979;48.306;9.830;2023-03-08T01:27:41;0.40;;;0.40;;
21634;SDS011;10979;48.306;9.830;2023-03-08T01:30:06;0.40;;;0.40;;
21634;SDS011;10979;48.306;9.830;2023-03-08T01:32:32;0.40;;;0.40;;
21634;SDS011;10979;48.306;9.830;2023-03-08T01:34:58;0.40;;;0.40;;
21634;SDS011;10979;48.306;9.830;2023-03-08T01:37:28;0.40;;;0.40;;
21634;SDS011;10979;48.306;9.830;2023-03-08T01:39:58;0.40;;;0.40;;
21634;SDS011;10979;48.306;9.830;2023-03-08T02:01:26;0.40;;;0.40;;
21634;SDS011;10979;48.306;9.830;2023-03-08T02:03:52;0.40;;;0.40;;
21634;SDS011;10979;48.306;9.830;2023-03-08T02:06:18;0.40;;;0.40;;
21634;SDS011;10979;48.306;9.830;2023-03-08T02:08:44;0.40;;;0.40;;
21634;SDS011;10979;48.306;9.830;2023-03-08T02:11:10;0.40;;;0.40;;
21634;SDS011;10979;48.306;9.830;2023-03-08T02:13:52;0.50;;;0.50;;
21634;SDS011;10979;48.306;9.830;2023-03-08T02:16:19;0.40;;;0.40;;
21634;SDS011;10979;48.306;9.830;2023-03-08T02:18:52;0.40;;;0.40;;
21634;SDS011;10979;48.306;9.830;2023-03-08T02:21:23;0.40;;;0.40;;
21634;SDS011;10979;48.306;9.830;2023-03-08T02:23:49;0.40;;;0.40;;
21634;SDS011;10979;48.306;9.830;2023-03-08T02:26:15;0.40;;;0.40;;
21634;SDS011;10979;48.306;9.830;2023-03-08T02:28:41;0.40;;;0.40;;
21634;SDS011;10979;48.306;9.830;2023-03-08T02:31:08;0.40;;;0.40;;
21634;SDS011;10979;48.306;9.830;2023-03-08T02:33:34;0.40;;;0.40;;
21634;SDS011;10979;48.306;9.830;2023-03-08T02:36:00;0.40;;;0.40;;
21634;SDS011;10979;48.306;9.830;2023-03-08T02:38:26;0.40;;;0.40;;
21634;SDS011;10979;48.306;9.830;2023-03-08T02:40:52;0.40;;;0.40;;
21634;SDS011;10979;48.306;9.830;2023-03-08T02:43:18;0.40;;;0.40;;
21634;SDS011;10979;48.306;9.830;2023-03-08T02:48:32;0.40;;;0.40;;
21634;SDS011;10979;48.306;9.830;2023-03-08T02:50:57;0.40;;;0.40;;
21634;SDS011;10979;48.306;9.830;2023-03-08T02:53:23;0.40;;;0.40;;
21634;SDS011;10979;48.306;9.830;2023-03-08T02:55:48;0.40;;;0.40;;
21634;SDS011;10979;48.306;9.830;2023-03-08T02:58:14;0.40;;;0.40;;
21634;SDS011;10979;48.306;9.830;2023-03-08T03:00:39;0.40;;;0.40;;
21634;SDS011;10979;48.306;9.830;2023-03-08T03:03:05;0.40;;;0.40;;
21634;SDS011;10979;48.306;9.830;2023-03-08T03:05:30;0.40;;;0.40;;
21634;SDS011;10979;48.306;9.830;2023-03-08T03:07:56;0.40;;;0.40;;
21634;SDS011;10979;48.306;9.830;2023-03-08T03:10:23;0.40;;;0.40;;
21634;SDS011;10979;48.306;9.830;2023-03-08T03:12:48;0.40;;;0.40;;
21634;SDS011;10979;48.306;9.830;2023-03-08T03:15:14;0.40;;;0.40;;
21634;SDS011;10979;48.306;9.830;2023-03-08T03:17:39;0.40;;;0.40;;
21634;SDS011;10979;48.306;9.830;2023-03-08T03:20:06;0.47;;;0.47;;
21634;SDS011;10979;48.306;9.830;2023-03-08T03:22:33;0.40;;;0.40;;
21634;SDS011;10979;48.306;9.830;2023-03-08T03:24:59;0.40;;;0.40;;
21634;SDS011;10979;48.306;9.830;2023-03-08T03:27:25;0.40;;;0.40;;
21634;SDS011;10979;48.306;9.830;2023-03-08T03:29:50;0.40;;;0.40;;
21634;SDS011;10979;48.306;9.830;2023-03-08T03:32:16;0.40;;;0.40;;
21634;SDS011;10979;48.306;9.830;2023-03-08T03:34:42;0.40;;;0.40;;
21634;SDS011;10979;48.306;9.830;2023-03-08T03:37:07;0.40;;;0.40;;
21634;SDS011;10979;48.306;9.830;2023-03-08T03:39:36;0.40;;;0.40;;
21634;SDS011;10979;48.306;9.830;2023-03-08T03:42:03;0.40;;;0.40;;
21634;SDS011;10979;48.306;9.830;2023-03-08T03:44:29;0.40;;;0.40;;
21634;SDS011;10979;48.306;9.830;2023-03-08T03:46:55;0.40;;;0.40;;
21634;SDS011;10979;48.306;9.830;2023-03-08T03:49:21;0.40;;;0.40;;
21634;SDS011;10979;48.306;9.830;2023-03-08T03:51:46;0.40;;;0.40;;
21634;SDS011;10979;48.306;9.830;2023-03-08T03:54:12;0.40;;;0.40;;
21634;SDS011;10979;48.306;9.830;2023-03-08T03:56:37;0.40;;;0.40;;
21634;SDS011;10979;48.306;9.830;2023-03-08T03:59:03;0.40;;;0.40;;
21634;SDS011;10979;48.306;9.830;2023-03-08T04:01:29;0.40;;;0.40;;
21634;SDS011;10979;48.306;9.830;2023-03-08T04:03:55;0.40;;;0.40;;
21634;SDS011;10979;48.306;9.830;2023-03-08T04:06:23;0.40;;;0.40;;
21634;SDS011;10979;48.306;9.830;2023-03-08T04:08:51;0.50;;;0.50;;
21634;SDS011;10979;48.306;9.830;2023-03-08T04:11:19;0.40;;;0.40;;
21634;SDS011;10979;48.306;9.830;2023-03-08T04:13:47;0.40;;;0.40;;
21634;SDS011;10979;48.306;9.830;2023-03-08T04:16:17;0.50;;;0.50;;
21634;SDS011;10979;48.306;9.830;2023-03-08T04:18:44;0.40;;;0.40;;
21634;SDS011;10979;48.306;9.830;2023-03-08T04:21:10;0.40;;;0.40;;
21634;SDS011;10979;48.306;9.830;2023-03-08T04:23:37;0.45;;;0.45;;
21634;SDS011;10979;48.306;9.830;2023-03-08T04:26:03;0.40;;;0.40;;
21634;SDS011;10979;48.306;9.830;2023-03-08T04:28:29;0.40;;;0.40;;
21634;SDS011;10979;48.306;9.830;2023-03-08T04:30:55;0.50;;;0.50;;
21634;SDS011;10979;48.306;9.830;2023-03-08T04:33:22;0.40;;;0.40;;
21634;SDS011;10979;48.306;9.830;2023-03-08T04:35:48;0.40;;;0.40;;
21634;SDS011;10979;48.306;9.830;2023-03-08T04:38:13;0.40;;;0.40;;
21634;SDS011;10979;48.306;9.830;2023-03-08T04:40:39;0.47;;;0.47;;
21634;SDS011;10979;48.306;9.830;2023-03-08T04:43:28;0.40;;;0.40;;
21634;SDS011;10979;48.306;9.830;2023-03-08T04:45:54;0.40;;;0.40;;
21634;SDS011;10979;48.306;9.830;2023-03-08T04:48:20;0.40;;;0.40;;
21634;SDS011;10979;48.306;9.830;2023-03-08T04:50:55;0.40;;;0.40;;
21634;SDS011;10979;48.306;9.830;2023-03-08T04:53:26;0.40;;;0.40;;
21634;SDS011;10979;48.306;9.830;2023-03-08T04:55:53;0.40;;;0.40;;
21634;SDS011;10979;48.306;9.830;2023-03-08T04:58:19;0.50;;;0.50;;
21634;SDS011;10979;48.306;9.830;2023-03-08T05:00:45;0.40;;;0.40;;
21634;SDS011;10979;48.306;9.830;2023-03-08T05:03:11;0.40;;;0.40;;
21634;SDS011;10979;48.306;9.830;2023-03-08T05:05:42;0.40;;;0.40;;
21634;SDS011;10979;48.306;9.830;2023-03-08T05:08:12;0.40;;;0.40;;
21634;SDS011;10979;48.306;9.830;2023-03-08T05:10:38;0.40;;;0.40;;
21634;SDS011;10979;48.306;9.830;2023-03-08T05:13:03;0.40;;;0.40;;
21634;SDS011;10979;48.306;9.830;2023-03-08T05:25:41;0.40;;;0.40;;
21634;SDS011;10979;48.306;9.830;2023-03-08T05:48:23;0.50;;;0.50;;
21634;SDS011;10979;48.306;9.830;2023-03-08T05:50:49;0.43;;;0.43;;
21634;SDS011;10979;48.306;9.830;2023-03-08T05:53:15;0.40;;;0.40;;
21634;SDS011;10979;48.306;9.830;2023-03-08T05:55:43;0.40;;;0.40;;
21634;SDS011;10979;48.306;9.830;2023-03-08T05:58:09;0.40;;;0.40;;
21634;SDS011;10979;48.306;9.830;2023-03-08T06:00:34;0.40;;;0.40;;
21634;SDS011;10979;48.306;9.830;2023-03-08T06:03:00;0.40;;;0.40;;
21634;SDS011;10979;48.306;9.830;2023-03-08T06:05:32;0.40;;;0.40;;
21634;SDS011;10979;48.306;9.830;2023-03-08T06:07:58;0.40;;;0.40;;
21634;SDS011;10979;48.306;9.830;2023-03-08T06:10:24;0.40;;;0.40;;
21634;SDS011;10979;48.306;9.830;2023-03-08T06:12:50;0.40;;;0.40;;
21634;SDS011;10979;48.306;9.830;2023-03-08T06:15:15;0.40;;;0.40;;
21634;SDS011;10979;48.306;9.830;2023-03-08T06:17:41;0.40;;;0.40;;
21634;SDS011;10979;48.306;9.830;2023-03-08T06:20:07;0.40;;;0.40;;
21634;SDS011;10979;48.306;9.830;2023-03-08T06:22:33;0.40;;;0.40;;
21634;SDS011;10979;48.306;9.830;2023-03-08T06:24:59;0.40;;;0.40;;
21634;SDS011;10979;48.306;9.830;2023-03-08T06:27:25;0.40;;;0.40;;
21634;SDS011;10979;48.306;9.830;2023-03-08T06:29:51;0.40;;;0.40;;
21634;SDS011;10979;48.306;9.830;2023-03-08T06:32:17;0.40;;;0.40;;
21634;SDS011;10979;48.306;9.830;2023-03-08T06:34:42;0.40;;;0.40;;
21634;SDS011;10979;48.306;9.830;2023-03-08T06:37:09;0.40;;;0.40;;
21634;SDS011;10979;48.306;9.830;2023-03-08T06:39:34;0.40;;;0.40;;
21634;SDS011;10979;48.306;9.830;2023-03-08T06:42:00;0.40;;;0.40;;
21634;SDS011;10979;48.306;9.830;2023-03-08T06:44:27;0.40;;;0.40;;
21634;SDS011;10979;48.306;9.830;2023-03-08T06:46:53;0.40;;;0.40;;
21634;SDS011;10979;48.306;9.830;2023-03-08T06:49:19;0.40;;;0.40;;
21634;SDS011;10979;48.306;9.830;2023-03-08T06:51:45;0.40;;;0.40;;
21634;SDS011;10979;48.306;9.830;2023-03-08T06:54:10;0.40;;;0.40;;
21634;SDS011;10979;48.306;9.830;2023-03-08T06:56:41;0.40;;;0.40;;
21634;SDS011;10979;48.306;9.830;2023-03-08T06:59:10;0.40;;;0.40;;
21634;SDS011;10979;48.306;9.830;2023-03-08T07:01:37;0.40;;;0.40;;
21634;SDS011;10979;48.306;9.830;2023-03-08T07:04:03;0.40;;;0.40;;
21634;SDS011;10979;48.306;9.830;2023-03-08T07:06:28;0.40;;;0.40;;
21634;SDS011;10979;48.306;9.830;2023-03-08T07:08:54;0.40;;;0.40;;
21634;SDS011;10979;48.306;9.830;2023-03-08T07:11:19;0.30;;;0.30;;
21634;SDS011;10979;48.306;9.830;2023-03-08T07:13:45;0.40;;;0.40;;
21634;SDS011;10979;48.306;9.830;2023-03-08T07:16:11;0.40;;;0.40;;
21634;SDS011;10979;48.306;9.830;2023-03-08T07:18:37;0.30;;;0.30;;
21634;SDS011;10979;48.306;9.830;2023-03-08T07:21:03;0.40;;;0.40;;
21634;SDS011;10979;48.306;9.830;2023-03-08T07:23:29;0.35;;;0.35;;
21634;SDS011;10979;48.306;9.830;2023-03-08T07:25:55;0.40;;;0.40;;
21634;SDS011;10979;48.306;9.830;2023-03-08T07:28:21;0.40;;;0.40;;
21634;SDS011;10979;48.306;9.830;2023-03-08T07:30:47;0.30;;;0.30;;
21634;SDS011;10979;48.306;9.830;2023-03-08T07:33:17;0.30;;;0.30;;
21634;SDS011;10979;48.306;9.830;2023-03-08T07:35:44;0.30;;;0.30;;
21634;SDS011;10979;48.306;9.830;2023-03-08T07:38:12;0.40;;;0.40;;
21634;SDS011;10979;48.306;9.830;2023-03-08T07:40:39;0.40;;;0.40;;
21634;SDS011;10979;48.306;9.830;2023-03-08T07:43:04;0.30;;;0.30;;
21634;SDS011;10979;48.306;9.830;2023-03-08T07:45:30;0.30;;;0.30;;
21634;SDS011;10979;48.306;9.830;2023-03-08T07:47:56;0.30;;;0.30;;
21634;SDS011;10979;48.306;9.830;2023-03-08T07:50:22;0.30;;;0.30;;
21634;SDS011;10979;48.306;9.830;2023-03-08T07:52:48;0.35;;;0.35;;
21634;SDS011;10979;48.306;9.830;2023-03-08T07:55:13;0.30;;;0.30;;
21634;SDS011;10979;48.306;9.830;2023-03-08T07:57:39;0.30;;;0.30;;
21634;SDS011;10979;48.306;9.830;2023-03-08T08:00:05;0.30;;;0.30;;
21634;SDS011;10979;48.306;9.830;2023-03-08T08:02:32;0.30;;;0.30;;
21634;SDS011;10979;48.306;9.830;2023-03-08T08:05:01;0.30;;;0.30;;
21634;SDS011;10979;48.306;9.830;2023-03-08T08:07:27;0.30;;;0.30;;
21634;SDS011;10979;48.306;9.830;2023-03-08T08:09:53;0.30;;;0.30;;
21634;SDS011;10979;48.306;9.830;2023-03-08T08:12:19;0.30;;;0.30;;
21634;SDS011;10979;48.306;9.830;2023-03-08T08:14:44;0.30;;;0.30;;
21634;SDS011;10979;48.306;9.830;2023-03-08T08:17:10;0.30;;;0.30;;
21634;SDS011;10979;48.306;9.830;2023-03-08T08:19:36;0.30;;;0.30;;
21634;SDS011;10979;48.306;9.830;2023-03-08T08:22:02;0.30;;;0.30;;
21634;SDS011;10979;48.306;9.830;2023-03-08T08:24:28;0.30;;;0.30;;
21634;SDS011;10979;48.306;9.830;2023-03-08T08:26:55;0.30;;;0.30;;
21634;SDS011;10979;48.306;9.830;2023-03-08T08:29:21;0.30;;;0.30;;
21634;SDS011;10979;48.306;9.830;2023-03-08T08:31:46;0.30;;;0.30;;
21634;SDS011;10979;48.306;9.830;2023-03-08T08:34:12;0.30;;;0.30;;
21634;SDS011;10979;48.306;9.830;2023-03-08T08:36:38;0.30;;;0.30;;
21634;SDS011;10979;48.306;9.830;2023-03-08T08:39:03;0.30;;;0.30;;
21634;SDS011;10979;48.306;9.830;2023-03-08T08:41:29;0.30;;;0.30;;
21634;SDS011;10979;48.306;9.830;2023-03-08T08:43:56;0.30;;;0.30;;
21634;SDS011;10979;48.306;9.830;2023-03-08T08:46:23;0.30;;;0.30;;
21634;SDS011;10979;48.306;9.830;2023-03-08T08:48:49;0.30;;;0.30;;
21634;SDS011;10979;48.306;9.830;2023-03-08T08:51:15;0.30;;;0.30;;
21634;SDS011;10979;48.306;9.830;2023-03-08T08:53:41;0.30;;;0.30;;
21634;SDS011;10979;48.306;9.830;2023-03-08T08:56:11;0.30;;;0.30;;
21634;SDS011;10979;48.306;9.830;2023-03-08T08:58:38;0.30;;;0.30;;
21634;SDS011;10979;48.306;9.830;2023-03-08T09:01:11;0.30;;;0.30;;
21634;SDS011;10979;48.306;9.830;2023-03-08T09:03:40;0.30;;;0.30;;
21634;SDS011;10979;48.306;9.830;2023-03-08T09:06:06;0.30;;;0.30;;
21634;SDS011;10979;48.306;9.830;2023-03-08T09:08:31;0.30;;;0.30;;
21634;SDS011;10979;48.306;9.830;2023-03-08T09:11:00;0.30;;;0.30;;
21634;SDS011;10979;48.306;9.830;2023-03-08T09:13:28;0.30;;;0.30;;
21634;SDS011;10979;48.306;9.830;2023-03-08T09:15:54;0.30;;;0.30;;
21634;SDS011;10979;48.306;9.830;2023-03-08T09:18:19;0.30;;;0.30;;
21634;SDS011;10979;48.306;9.830;2023-03-08T09:20:45;0.30;;;0.30;;
21634;SDS011;10979;48.306;9.830;2023-03-08T09:23:10;0.30;;;0.30;;
21634;SDS011;10979;48.306;9.830;2023-03-08T09:25:36;0.30;;;0.30;;
21634;SDS011;10979;48.306;9.830;2023-03-08T09:28:01;0.30;;;0.30;;
21634;SDS011;10979;48.306;9.830;2023-03-08T09:30:27;0.30;;;0.30;;
21634;SDS011;10979;48.306;9.830;2023-03-08T09:32:53;0.30;;;0.30;;
21634;SDS011;10979;48.306;9.830;2023-03-08T09:35:19;0.30;;;0.30;;
21634;SDS011;10979;48.306;9.830;2023-03-08T09:37:44;0.28;;;0.28;;
21634;SDS011;10979;48.306;9.830;2023-03-08T09:40:19;0.20;;;0.20;;
21634;SDS011;10979;48.306;9.830;2023-03-08T09:42:46;0.20;;;0.20;;
21634;SDS011;10979;48.306;9.830;2023-03-08T09:45:25;0.20;;;0.20;;
21634;SDS011;10979;48.306;9.830;2023-03-08T09:50:41;0.20;;;0.20;;
21634;SDS011;10979;48.306;9.830;2023-03-08T10:15:32;0.20;;;0.20;;
21634;SDS011;10979;48.306;9.830;2023-03-08T10:20:42;0.20;;;0.20;;
21634;SDS011;10979;48.306;9.830;2023-03-08T10:23:15;0.20;;;0.20;;
21634;SDS011;10979;48.306;9.830;2023-03-08T10:25:43;0.20;;;0.20;;
21634;SDS011;10979;48.306;9.830;2023-03-08T10:28:17;0.20;;;0.20;;
21634;SDS011;10979;48.306;9.830;2023-03-08T10:33:24;0.20;;;0.20;;
21634;SDS011;10979;48.306;9.830;2023-03-08T10:38:31;0.20;;;0.20;;
21634;SDS011;10979;48.306;9.830;2023-03-08T10:43:50;0.20;;;0.20;;
21634;SDS011;10979;48.306;9.830;2023-03-08T10:46:21;0.20;;;0.20;;
21634;SDS011;10979;48.306;9.830;2023-03-08T10:48:49;0.20;;;0.20;;
21634;SDS011;10979;48.306;9.830;2023-03-08T10:51:16;0.10;;;0.10;;
21634;SDS011;10979;48.306;9.830;2023-03-08T10:53:51;0.20;;;0.20;;
21634;SDS011;10979;48.306;9.830;2023-03-08T10:59:02;0.10;;;0.10;;
21634;SDS011;10979;48.306;9.830;2023-03-08T11:01:32;0.20;;;0.20;;
21634;SDS011;10979;48.306;9.830;2023-03-08T11:04:03;0.20;;;0.20;;
21634;SDS011;10979;48.306;9.830;2023-03-08T11:06:31;0.20;;;0.20;;
21634;SDS011;10979;48.306;9.830;2023-03-08T11:09:00;0.10;;;0.10;;
21634;SDS011;10979;48.306;9.830;2023-03-08T11:11:27;0.10;;;0.10;;
21634;SDS011;10979;48.306;9.830;2023-03-08T11:13:53;0.20;;;0.20;;
21634;SDS011;10979;48.306;9.830;2023-03-08T11:19:37;0.10;;;0.10;;
21634;SDS011;10979;48.306;9.830;2023-03-08T11:27:36;0.10;;;0.10;;
21634;SDS011;10979;48.306;9.830;2023-03-08T11:34:00;0.10;;;0.10;;
21634;SDS011;10979;48.306;9.830;2023-03-08T11:38:38;0.10;;;0.10;;
21634;SDS011;10979;48.306;9.830;2023-03-08T11:49:22;0.10;;;0.10;;
21634;SDS011;10979;48.306;9.830;2023-03-08T11:57:26;0.10;;;0.10;;
21634;SDS011;10979;48.306;9.830;2023-03-08T12:00:02;0.10;;;0.10;;
21634;SDS011;10979;48.306;9.830;2023-03-08T12:02:39;0.10;;;0.10;;
21634;SDS011;10979;48.306;9.830;2023-03-08T12:05:15;0.20;;;0.20;;
21634;SDS011;10979;48.306;9.830;2023-03-08T12:07:51;0.10;;;0.10;;
21634;SDS011;10979;48.306;9.830;2023-03-08T12:10:25;0.10;;;0.10;;
21634;SDS011;10979;48.306;9.830;2023-03-08T12:15:45;0.10;;;0.10;;
21634;SDS011;10979;48.306;9.830;2023-03-08T12:21:09;0.20;;;0.20;;
21634;SDS011;10979;48.306;9.830;2023-03-08T12:26:53;0.10;;;0.10;;
21634;SDS011;10979;48.306;9.830;2023-03-08T12:29:30;0.13;;;0.13;;
21634;SDS011;10979;48.306;9.830;2023-03-08T12:31:58;0.10;;;0.10;;
21634;SDS011;10979;48.306;9.830;2023-03-08T12:36:52;0.10;;;0.10;;
21634;SDS011;10979;48.306;9.830;2023-03-08T12:39:23;0.10;;;0.10;;
21634;SDS011;10979;48.306;9.830;2023-03-08T12:41:58;0.10;;;0.10;;
21634;SDS011;10979;48.306;9.830;2023-03-08T12:44:37;0.10;;;0.10;;
21634;SDS011;10979;48.306;9.830;2023-03-08T12:49:53;0.10;;;0.10;;
21634;SDS011;10979;48.306;9.830;2023-03-08T12:57:45;0.10;;;0.10;;
21634;SDS011;10979;48.306;9.830;2023-03-08T13:00:30;0.10;;;0.10;;
21634;SDS011;10979;48.306;9.830;2023-03-08T13:03:05;0.10;;;0.10;;
21634;SDS011;10979;48.306;9.830;2023-03-08T13:05:37;0.10;;;0.10;;
21634;SDS011;10979;48.306;9.830;2023-03-08T13:10:37;0.10;;;0.10;;
21634;SDS011;10979;48.306;9.830;2023-03-08T13:15:33;0.10;;;0.10;;
21634;SDS011;10979;48.306;9.830;2023-03-08T13:20:42;0.10;;;0.10;;
21634;SDS011;10979;48.306;9.830;2023-03-08T13:28:51;0.10;;;0.10;;
21634;SDS011;10979;48.306;9.830;2023-03-08T13:31:21;0.10;;;0.10;;
21634;SDS011;10979;48.306;9.830;2023-03-08T13:33:51;0.10;;;0.10;;
21634;SDS011;10979;48.306;9.830;2023-03-08T13:36:23;0.10;;;0.10;;
21634;SDS011;10979;48.306;9.830;2023-03-08T13:39:07;0.10;;;0.10;;
21634;SDS011;10979;48.306;9.830;2023-03-08T13:41:49;0.10;;;0.10;;
21634;SDS011;10979;48.306;9.830;2023-03-08T13:44:16;0.10;;;0.10;;
21634;SDS011;10979;48.306;9.830;2023-03-08T13:46:45;0.10;;;0.10;;
21634;SDS011;10979;48.306;9.830;2023-03-08T13:49:13;0.10;;;0.10;;
21634;SDS011;10979;48.306;9.830;2023-03-08T13:51:41;0.10;;;0.10;;
21634;SDS011;10979;48.306;9.830;2023-03-08T13:54:13;0.10;;;0.10;;
21634;SDS011;10979;48.306;9.830;2023-03-08T13:56:53;0.10;;;0.10;;
21634;SDS011;10979;48.306;9.830;2023-03-08T13:59:20;0.10;;;0.10;;
21634;SDS011;10979;48.306;9.830;2023-03-08T14:01:47;0.10;;;0.10;;
21634;SDS011;10979;48.306;9.830;2023-03-08T14:04:21;0.08;;;0.08;;
21634;SDS011;10979;48.306;9.830;2023-03-08T14:06:52;0.00;;;0.00;;
21634;SDS011;10979;48.306;9.830;2023-03-08T14:09:20;0.08;;;0.08;;
21634;SDS011;10979;48.306;9.830;2023-03-08T14:11:52;0.00;;;0.00;;
21634;SDS011;10979;48.306;9.830;2023-03-08T14:14:27;0.10;;;0.10;;
21634;SDS011;10979;48.306;9.830;2023-03-08T14:16:56;0.00;;;0.00;;
21634;SDS011;10979;48.306;9.830;2023-03-08T14:19:26;0.10;;;0.10;;
21634;SDS011;10979;48.306;9.830;2023-03-08T14:21:57;0.10;;;0.10;;
21634;SDS011;10979;48.306;9.830;2023-03-08T14:24:29;0.10;;;0.10;;
21634;SDS011;10979;48.306;9.830;2023-03-08T14:26:58;0.10;;;0.10;;
21634;SDS011;10979;48.306;9.830;2023-03-08T14:29:47;0.10;;;0.10;;
21634;SDS011;10979;48.306;9.830;2023-03-08T14:37:25;0.03;;;0.03;;
21634;SDS011;10979;48.306;9.830;2023-03-08T14:39:53;0.10;;;0.10;;
21634;SDS011;10979;48.306;9.830;2023-03-08T14:42:39;0.10;;;0.10;;
21634;SDS011;10979;48.306;9.830;2023-03-08T14:45:18;0.10;;;0.10;;
21634;SDS011;10979;48.306;9.830;2023-03-08T14:48:54;0.10;;;0.10;;
21634;SDS011;10979;48.306;9.830;2023-03-08T14:53:36;0.10;;;0.10;;
21634;SDS011;10979;48.306;9.830;2023-03-08T14:56:10;0.10;;;0.10;;
21634;SDS011;10979;48.306;9.830;2023-03-08T14:58:45;0.10;;;0.10;;
21634;SDS011;10979;48.306;9.830;2023-03-08T15:01:21;0.10;;;0.10;;
21634;SDS011;10979;48.306;9.830;2023-03-08T15:03:51;0.10;;;0.10;;
21634;SDS011;10979;48.306;9.830;2023-03-08T15:06:19;0.10;;;0.10;;
21634;SDS011;10979;48.306;9.830;2023-03-08T15:08:47;0.00;;;0.00;;
21634;SDS011;10979;48.306;9.830;2023-03-08T15:11:13;0.10;;;0.10;;
21634;SDS011;10979;48.306;9.830;2023-03-08T15:13:39;0.10;;;0.10;;
21634;SDS011;10979;48.306;9.830;2023-03-08T15:16:08;0.10;;;0.10;;
21634;SDS011;10979;48.306;9.830;2023-03-08T15:18:34;0.00;;;0.00;;
21634;SDS011;10979;48.306;9.830;2023-03-08T15:21:00;0.00;;;0.00;;
21634;SDS011;10979;48.306;9.830;2023-03-08T15:23:26;0.10;;;0.10;;
21634;SDS011;10979;48.306;9.830;2023-03-08T15:25:54;0.10;;;0.10;;
21634;SDS011;10979;48.306;9.830;2023-03-08T15:28:21;0.10;;;0.10;;
21634;SDS011;10979;48.306;9.830;2023-03-08T15:30:48;0.10;;;0.10;;
21634;SDS011;10979;48.306;9.830;2023-03-08T15:33:16;0.10;;;0.10;;
21634;SDS011;10979;48.306;9.830;2023-03-08T15:35:42;0.10;;;0.10;;
21634;SDS011;10979;48.306;9.830;2023-03-08T15:38:12;0.10;;;0.10;;
21634;SDS011;10979;48.306;9.830;2023-03-08T15:40:40;0.10;;;0.10;;
21634;SDS011;10979;48.306;9.830;2023-03-08T15:43:06;0.10;;;0.10;;
21634;SDS011;10979;48.306;9.830;2023-03-08T15:45:32;0.10;;;0.10;;
21634;SDS011;10979;48.306;9.830;2023-03-08T15:48:13;0.10;;;0.10;;
21634;SDS011;10979;48.306;9.830;2023-03-08T15:50:40;0.10;;;0.10;;
21634;SDS011;10979;48.306;9.830;2023-03-08T15:53:07;0.10;;;0.10;;
21634;SDS011;10979;48.306;9.830;2023-03-08T15:55:33;0.10;;;0.10;;
21634;SDS011;10979;48.306;9.830;2023-03-08T15:58:01;0.10;;;0.10;;
21634;SDS011;10979;48.306;9.830;2023-03-08T16:00:27;0.10;;;0.10;;
21634;SDS011;10979;48.306;9.830;2023-03-08T16:02:53;0.10;;;0.10;;
21634;SDS011;10979;48.306;9.830;2023-03-08T16:05:20;0.10;;;0.10;;
21634;SDS011;10979;48.306;9.830;2023-03-08T16:07:52;0.10;;;0.10;;
21634;SDS011;10979;48.306;9.830;2023-03-08T16:10:21;0.10;;;0.10;;
21634;SDS011;10979;48.306;9.830;2023-03-08T16:12:47;0.10;;;0.10;;
21634;SDS011;10979;48.306;9.830;2023-03-08T16:15:13;0.10;;;0.10;;
21634;SDS011;10979;48.306;9.830;2023-03-08T16:17:38;0.10;;;0.10;;
21634;SDS011;10979;48.306;9.830;2023-03-08T16:20:04;0.10;;;0.10;;
21634;SDS011;10979;48.306;9.830;2023-03-08T16:22:31;0.10;;;0.10;;
21634;SDS011;10979;48.306;9.830;2023-03-08T16:24:59;0.10;;;0.10;;
21634;SDS011;10979;48.306;9.830;2023-03-08T16:27:27;0.10;;;0.10;;
21634;SDS011;10979;48.306;9.830;2023-03-08T16:29:54;0.10;;;0.10;;
21634;SDS011;10979;48.306;9.830;2023-03-08T16:32:19;0.10;;;0.10;;
21634;SDS011;10979;48.306;9.830;2023-03-08T16:34:45;0.10;;;0.10;;
21634;SDS011;10979;48.306;9.830;2023-03-08T16:37:18;0.10;;;0.10;;
21634;SDS011;10979;48.306;9.830;2023-03-08T16:39:47;0.10;;;0.10;;
21634;SDS011;10979;48.306;9.830;2023-03-08T16:42:13;0.10;;;0.10;;
21634;SDS011;10979;48.306;9.830;2023-03-08T16:44:39;0.10;;;0.10;;
21634;SDS011;10979;48.306;9.830;2023-03-08T16:47:06;0.10;;;0.10;;
21634;SDS011;10979;48.306;9.830;2023-03-08T16:49:32;0.10;;;0.10;;
21634;SDS011;10979;48.306;9.830;2023-03-08T16:51:58;0.10;;;0.10;;
21634;SDS011;10979;48.306;9.830;2023-03-08T16:54:23;0.10;;;0.10;;
21634;SDS011;10979;48.306;9.830;2023-03-08T16:56:49;0.10;;;0.10;;
21634;SDS011;10979;48.306;9.830;2023-03-08T16:59:15;0.10;;;0.10;;
21634;SDS011;10979;48.306;9.830;2023-03-08T17:01:44;0.10;;;0.10;;
21634;SDS011;10979;48.306;9.830;2023-03-08T17:04:11;0.10;;;0.10;;
21634;SDS011;10979;48.306;9.830;2023-03-08T17:06:37;0.10;;;0.10;;
21634;SDS011;10979;48.306;9.830;2023-03-08T17:09:03;0.10;;;0.10;;
21634;SDS011;10979;48.306;9.830;2023-03-08T17:11:30;0.10;;;0.10;;
21634;SDS011;10979;48.306;9.830;2023-03-08T17:13:58;0.10;;;0.10;;
21634;SDS011;10979;48.306;9.830;2023-03-08T17:16:27;0.10;;;0.10;;
21634;SDS011;10979;48.306;9.830;2023-03-08T17:18:54;0.10;;;0.10;;
21634;SDS011;10979;48.306;9.830;2023-03-08T17:21:21;0.10;;;0.10;;
21634;SDS011;10979;48.306;9.830;2023-03-08T17:23:47;0.10;;;0.10;;
21634;SDS011;10979;48.306;9.830;2023-03-08T17:26:14;0.10;;;0.10;;
21634;SDS011;10979;48.306;9.830;2023-03-08T17:28:40;0.10;;;0.10;;
21634;SDS011;10979;48.306;9.830;2023-03-08T17:31:10;0.10;;;0.10;;
21634;SDS011;10979;48.306;9.830;2023-03-08T17:33:38;0.10;;;0.10;;
21634;SDS011;10979;48.306;9.830;2023-03-08T17:36:04;0.10;;;0.10;;